Scotland, Connecticut
Current Conditions -  °F | °C
As of 4:52 AM on Tuesday 21 Oct 2014 (Local Time) from KIJD Reporting Station
Clear Clear  
Wind Chill: 40°   Ceiling: Unl
Heat Index: 40°   Visibility: 10mi
Dew Point: 38°   Wind: 3mph
Humidity: 93%   Direction: 10°N
Pressure: 29.95"   Gusts: NA
Location:  41.7°N, 72.08°W
Report Text: KIJD 210852Z AUTO 01003KT 10SM CLR 04/03 A2995 RMK AO2 SLP144 T00440033 56013
Loading
Personal Weather Stations






























Interactive Weather Map
Tropical Storm Tracking
New forecast layout! Learn more

10-Day Weather Forecast

Advertisements
Track Severe Weather on mobile